sensor_id;sensor_type;location;lat;lon;timestamp;P1;durP1;ratioP1;P2;durP2;ratioP2
42244;SDS011;27912;51.828;5.688;2024-02-21T00:00:46;24.20;;;12.48;;
42244;SDS011;27912;51.828;5.688;2024-02-21T00:03:11;29.13;;;13.00;;
42244;SDS011;27912;51.828;5.688;2024-02-21T00:05:37;22.90;;;11.27;;
42244;SDS011;27912;51.828;5.688;2024-02-21T00:08:03;26.90;;;12.77;;
42244;SDS011;27912;51.828;5.688;2024-02-21T00:10:28;34.00;;;12.27;;
42244;SDS011;27912;51.828;5.688;2024-02-21T00:12:56;28.17;;;12.13;;
42244;SDS011;27912;51.828;5.688;2024-02-21T00:15:22;32.53;;;13.63;;
42244;SDS011;27912;51.828;5.688;2024-02-21T00:17:47;25.35;;;11.77;;
42244;SDS011;27912;51.828;5.688;2024-02-21T00:20:14;27.25;;;12.30;;
42244;SDS011;27912;51.828;5.688;2024-02-21T00:22:39;29.70;;;12.75;;
42244;SDS011;27912;51.828;5.688;2024-02-21T00:25:05;21.08;;;11.25;;
42244;SDS011;27912;51.828;5.688;2024-02-21T00:27:31;30.55;;;12.43;;
42244;SDS011;27912;51.828;5.688;2024-02-21T00:29:57;28.50;;;11.25;;
42244;SDS011;27912;51.828;5.688;2024-02-21T00:32:22;25.20;;;10.57;;
42244;SDS011;27912;51.828;5.688;2024-02-21T00:34:48;33.92;;;12.80;;
42244;SDS011;27912;51.828;5.688;2024-02-21T00:37:13;24.92;;;11.20;;
42244;SDS011;27912;51.828;5.688;2024-02-21T00:39:39;21.85;;;10.60;;
42244;SDS011;27912;51.828;5.688;2024-02-21T00:42:05;30.50;;;11.65;;
42244;SDS011;27912;51.828;5.688;2024-02-21T00:44:32;24.00;;;10.65;;
42244;SDS011;27912;51.828;5.688;2024-02-21T00:46:57;19.85;;;10.23;;
42244;SDS011;27912;51.828;5.688;2024-02-21T00:49:23;20.40;;;10.18;;
42244;SDS011;27912;51.828;5.688;2024-02-21T00:51:49;23.92;;;10.10;;
42244;SDS011;27912;51.828;5.688;2024-02-21T00:54:14;22.98;;;11.20;;
42244;SDS011;27912;51.828;5.688;2024-02-21T00:56:41;22.88;;;11.85;;
42244;SDS011;27912;51.828;5.688;2024-02-21T00:59:07;24.10;;;11.20;;
42244;SDS011;27912;51.828;5.688;2024-02-21T01:01:33;28.73;;;10.52;;
42244;SDS011;27912;51.828;5.688;2024-02-21T01:03:58;21.38;;;10.55;;
42244;SDS011;27912;51.828;5.688;2024-02-21T01:06:24;24.40;;;10.05;;
42244;SDS011;27912;51.828;5.688;2024-02-21T01:08:49;27.13;;;11.02;;
42244;SDS011;27912;51.828;5.688;2024-02-21T01:11:15;26.35;;;11.05;;
42244;SDS011;27912;51.828;5.688;2024-02-21T01:13:41;23.45;;;10.82;;
42244;SDS011;27912;51.828;5.688;2024-02-21T01:16:07;25.52;;;12.15;;
42244;SDS011;27912;51.828;5.688;2024-02-21T01:18:33;25.70;;;12.02;;
42244;SDS011;27912;51.828;5.688;2024-02-21T01:20:59;26.17;;;10.55;;
42244;SDS011;27912;51.828;5.688;2024-02-21T01:23:24;23.17;;;11.23;;
42244;SDS011;27912;51.828;5.688;2024-02-21T01:25:50;34.70;;;11.82;;
42244;SDS011;27912;51.828;5.688;2024-02-21T01:28:16;19.77;;;10.27;;
42244;SDS011;27912;51.828;5.688;2024-02-21T01:30:43;28.35;;;10.82;;
42244;SDS011;27912;51.828;5.688;2024-02-21T01:33:08;27.60;;;10.57;;
42244;SDS011;27912;51.828;5.688;2024-02-21T01:35:34;27.85;;;11.07;;
42244;SDS011;27912;51.828;5.688;2024-02-21T01:38:01;29.75;;;10.98;;
42244;SDS011;27912;51.828;5.688;2024-02-21T01:40:26;25.20;;;10.98;;
42244;SDS011;27912;51.828;5.688;2024-02-21T01:42:53;25.40;;;11.32;;
42244;SDS011;27912;51.828;5.688;2024-02-21T01:45:20;21.92;;;10.40;;
42244;SDS011;27912;51.828;5.688;2024-02-21T01:47:46;20.33;;;11.15;;
42244;SDS011;27912;51.828;5.688;2024-02-21T01:50:12;24.58;;;10.82;;
42244;SDS011;27912;51.828;5.688;2024-02-21T01:52:39;25.80;;;11.27;;
42244;SDS011;27912;51.828;5.688;2024-02-21T01:55:06;26.27;;;11.40;;
42244;SDS011;27912;51.828;5.688;2024-02-21T01:57:32;22.88;;;11.32;;
42244;SDS011;27912;51.828;5.688;2024-02-21T01:59:58;28.58;;;12.30;;
42244;SDS011;27912;51.828;5.688;2024-02-21T02:02:25;30.90;;;11.32;;
42244;SDS011;27912;51.828;5.688;2024-02-21T02:04:51;25.52;;;11.18;;
42244;SDS011;27912;51.828;5.688;2024-02-21T02:07:17;26.08;;;11.13;;
42244;SDS011;27912;51.828;5.688;2024-02-21T02:09:43;24.15;;;10.40;;
42244;SDS011;27912;51.828;5.688;2024-02-21T02:12:08;27.65;;;11.35;;
42244;SDS011;27912;51.828;5.688;2024-02-21T02:14:34;22.17;;;10.73;;
42244;SDS011;27912;51.828;5.688;2024-02-21T02:17:00;23.40;;;11.60;;
42244;SDS011;27912;51.828;5.688;2024-02-21T02:19:25;28.10;;;11.27;;
42244;SDS011;27912;51.828;5.688;2024-02-21T02:21:52;21.92;;;10.63;;
42244;SDS011;27912;51.828;5.688;2024-02-21T02:24:22;25.67;;;11.25;;
42244;SDS011;27912;51.828;5.688;2024-02-21T02:26:50;27.75;;;11.50;;
42244;SDS011;27912;51.828;5.688;2024-02-21T02:29:16;24.98;;;10.20;;
42244;SDS011;27912;51.828;5.688;2024-02-21T02:31:42;23.75;;;10.32;;
42244;SDS011;27912;51.828;5.688;2024-02-21T02:34:07;22.95;;;9.93;;
42244;SDS011;27912;51.828;5.688;2024-02-21T02:36:34;20.67;;;9.00;;
42244;SDS011;27912;51.828;5.688;2024-02-21T02:39:00;22.50;;;9.50;;
42244;SDS011;27912;51.828;5.688;2024-02-21T02:41:26;19.40;;;8.95;;
42244;SDS011;27912;51.828;5.688;2024-02-21T02:43:51;24.27;;;9.52;;
42244;SDS011;27912;51.828;5.688;2024-02-21T02:46:17;22.27;;;8.77;;
42244;SDS011;27912;51.828;5.688;2024-02-21T02:48:42;20.98;;;8.95;;
42244;SDS011;27912;51.828;5.688;2024-02-21T02:51:09;17.90;;;7.88;;
42244;SDS011;27912;51.828;5.688;2024-02-21T02:53:35;21.67;;;8.32;;
42244;SDS011;27912;51.828;5.688;2024-02-21T02:56:01;21.95;;;7.78;;
42244;SDS011;27912;51.828;5.688;2024-02-21T02:58:26;17.40;;;7.90;;
42244;SDS011;27912;51.828;5.688;2024-02-21T03:00:52;16.95;;;7.80;;
42244;SDS011;27912;51.828;5.688;2024-02-21T03:03:17;19.98;;;7.70;;
42244;SDS011;27912;51.828;5.688;2024-02-21T03:05:43;20.63;;;7.88;;
42244;SDS011;27912;51.828;5.688;2024-02-21T03:08:09;21.15;;;7.45;;
42244;SDS011;27912;51.828;5.688;2024-02-21T03:10:34;19.70;;;7.50;;
42244;SDS011;27912;51.828;5.688;2024-02-21T03:13:00;17.20;;;6.75;;
42244;SDS011;27912;51.828;5.688;2024-02-21T03:15:26;21.77;;;8.70;;
42244;SDS011;27912;51.828;5.688;2024-02-21T03:17:52;17.40;;;6.32;;
42244;SDS011;27912;51.828;5.688;2024-02-21T03:20:17;15.07;;;6.03;;
42244;SDS011;27912;51.828;5.688;2024-02-21T03:22:44;15.85;;;6.28;;
42244;SDS011;27912;51.828;5.688;2024-02-21T03:25:10;15.85;;;5.75;;
42244;SDS011;27912;51.828;5.688;2024-02-21T03:27:37;12.75;;;5.65;;
42244;SDS011;27912;51.828;5.688;2024-02-21T03:30:03;33.55;;;7.50;;
42244;SDS011;27912;51.828;5.688;2024-02-21T03:32:29;17.20;;;5.80;;
42244;SDS011;27912;51.828;5.688;2024-02-21T03:34:55;17.50;;;6.57;;
42244;SDS011;27912;51.828;5.688;2024-02-21T03:37:21;23.95;;;6.38;;
42244;SDS011;27912;51.828;5.688;2024-02-21T03:39:47;18.23;;;5.53;;
42244;SDS011;27912;51.828;5.688;2024-02-21T03:42:12;15.68;;;5.53;;
42244;SDS011;27912;51.828;5.688;2024-02-21T03:44:38;11.27;;;4.78;;
42244;SDS011;27912;51.828;5.688;2024-02-21T03:47:04;13.48;;;5.78;;
42244;SDS011;27912;51.828;5.688;2024-02-21T03:49:30;15.25;;;5.53;;
42244;SDS011;27912;51.828;5.688;2024-02-21T03:51:55;10.40;;;4.95;;
42244;SDS011;27912;51.828;5.688;2024-02-21T03:54:21;13.23;;;5.13;;
42244;SDS011;27912;51.828;5.688;2024-02-21T03:56:47;17.15;;;5.65;;
42244;SDS011;27912;51.828;5.688;2024-02-21T03:59:13;12.75;;;5.18;;
42244;SDS011;27912;51.828;5.688;2024-02-21T04:01:39;12.10;;;4.72;;
42244;SDS011;27912;51.828;5.688;2024-02-21T04:04:05;12.50;;;4.80;;
42244;SDS011;27912;51.828;5.688;2024-02-21T04:06:31;19.85;;;5.78;;
42244;SDS011;27912;51.828;5.688;2024-02-21T04:08:57;20.52;;;5.30;;
42244;SDS011;27912;51.828;5.688;2024-02-21T04:11:22;11.65;;;5.05;;
42244;SDS011;27912;51.828;5.688;2024-02-21T04:13:48;8.93;;;4.30;;
42244;SDS011;27912;51.828;5.688;2024-02-21T04:16:15;16.00;;;5.68;;
42244;SDS011;27912;51.828;5.688;2024-02-21T04:18:41;11.77;;;4.53;;
42244;SDS011;27912;51.828;5.688;2024-02-21T04:21:07;12.57;;;5.43;;
42244;SDS011;27912;51.828;5.688;2024-02-21T04:23:33;15.13;;;5.88;;
42244;SDS011;27912;51.828;5.688;2024-02-21T04:25:58;14.23;;;5.38;;
42244;SDS011;27912;51.828;5.688;2024-02-21T04:28:24;14.93;;;5.50;;
42244;SDS011;27912;51.828;5.688;2024-02-21T04:30:50;13.30;;;5.45;;
42244;SDS011;27912;51.828;5.688;2024-02-21T04:33:15;13.77;;;5.10;;
42244;SDS011;27912;51.828;5.688;2024-02-21T04:35:41;14.93;;;5.80;;
42244;SDS011;27912;51.828;5.688;2024-02-21T04:38:07;17.80;;;5.50;;
42244;SDS011;27912;51.828;5.688;2024-02-21T04:40:32;9.70;;;5.10;;
42244;SDS011;27912;51.828;5.688;2024-02-21T04:42:58;15.63;;;6.25;;
42244;SDS011;27912;51.828;5.688;2024-02-21T04:45:23;14.93;;;5.93;;
42244;SDS011;27912;51.828;5.688;2024-02-21T04:47:49;17.83;;;7.05;;
42244;SDS011;27912;51.828;5.688;2024-02-21T04:50:14;17.13;;;7.30;;
42244;SDS011;27912;51.828;5.688;2024-02-21T04:52:40;20.15;;;7.47;;
42244;SDS011;27912;51.828;5.688;2024-02-21T04:55:06;15.90;;;7.28;;
42244;SDS011;27912;51.828;5.688;2024-02-21T04:57:32;13.48;;;6.40;;
42244;SDS011;27912;51.828;5.688;2024-02-21T04:59:58;15.15;;;6.97;;
42244;SDS011;27912;51.828;5.688;2024-02-21T05:02:23;17.73;;;7.35;;
42244;SDS011;27912;51.828;5.688;2024-02-21T05:04:49;18.23;;;7.20;;
42244;SDS011;27912;51.828;5.688;2024-02-21T05:07:15;15.43;;;7.40;;
42244;SDS011;27912;51.828;5.688;2024-02-21T05:09:44;15.32;;;7.65;;
42244;SDS011;27912;51.828;5.688;2024-02-21T05:12:10;14.93;;;7.20;;
42244;SDS011;27912;51.828;5.688;2024-02-21T05:14:36;11.85;;;7.30;;
42244;SDS011;27912;51.828;5.688;2024-02-21T05:17:02;18.35;;;7.55;;
42244;SDS011;27912;51.828;5.688;2024-02-21T05:19:28;20.58;;;8.88;;
42244;SDS011;27912;51.828;5.688;2024-02-21T05:21:55;20.52;;;8.45;;
42244;SDS011;27912;51.828;5.688;2024-02-21T05:24:20;18.00;;;8.00;;
42244;SDS011;27912;51.828;5.688;2024-02-21T05:26:46;24.02;;;8.93;;
42244;SDS011;27912;51.828;5.688;2024-02-21T05:29:12;21.92;;;8.50;;
42244;SDS011;27912;51.828;5.688;2024-02-21T05:34:16;14.98;;;8.57;;
42244;SDS011;27912;51.828;5.688;2024-02-21T05:36:42;20.35;;;8.82;;
42244;SDS011;27912;51.828;5.688;2024-02-21T05:39:07;18.10;;;8.57;;
42244;SDS011;27912;51.828;5.688;2024-02-21T05:41:33;17.77;;;8.13;;
42244;SDS011;27912;51.828;5.688;2024-02-21T05:43:58;17.45;;;7.65;;
42244;SDS011;27912;51.828;5.688;2024-02-21T05:46:24;13.88;;;7.53;;
42244;SDS011;27912;51.828;5.688;2024-02-21T05:48:50;18.20;;;8.23;;
42244;SDS011;27912;51.828;5.688;2024-02-21T05:51:15;15.63;;;7.25;;
42244;SDS011;27912;51.828;5.688;2024-02-21T05:53:41;19.30;;;7.70;;
42244;SDS011;27912;51.828;5.688;2024-02-21T05:56:12;15.88;;;7.22;;
42244;SDS011;27912;51.828;5.688;2024-02-21T05:58:38;13.85;;;6.82;;
42244;SDS011;27912;51.828;5.688;2024-02-21T06:01:04;16.42;;;6.95;;
42244;SDS011;27912;51.828;5.688;2024-02-21T06:03:31;18.88;;;7.25;;
42244;SDS011;27912;51.828;5.688;2024-02-21T06:05:57;16.77;;;6.82;;
42244;SDS011;27912;51.828;5.688;2024-02-21T06:08:23;16.85;;;7.45;;
42244;SDS011;27912;51.828;5.688;2024-02-21T06:10:49;16.60;;;7.32;;
42244;SDS011;27912;51.828;5.688;2024-02-21T06:13:19;13.73;;;6.60;;
42244;SDS011;27912;51.828;5.688;2024-02-21T06:15:51;16.50;;;5.82;;
42244;SDS011;27912;51.828;5.688;2024-02-21T06:18:20;16.65;;;6.95;;
42244;SDS011;27912;51.828;5.688;2024-02-21T06:20:46;17.52;;;6.18;;
42244;SDS011;27912;51.828;5.688;2024-02-21T06:23:12;19.25;;;7.35;;
42244;SDS011;27912;51.828;5.688;2024-02-21T06:25:38;17.08;;;7.50;;
42244;SDS011;27912;51.828;5.688;2024-02-21T06:28:05;18.75;;;6.65;;
42244;SDS011;27912;51.828;5.688;2024-02-21T06:30:30;20.30;;;6.53;;
42244;SDS011;27912;51.828;5.688;2024-02-21T06:32:56;12.95;;;6.53;;
42244;SDS011;27912;51.828;5.688;2024-02-21T06:35:22;15.68;;;7.15;;
42244;SDS011;27912;51.828;5.688;2024-02-21T06:37:50;16.52;;;6.65;;
42244;SDS011;27912;51.828;5.688;2024-02-21T06:40:17;17.70;;;6.47;;
42244;SDS011;27912;51.828;5.688;2024-02-21T06:42:46;17.38;;;7.13;;
42244;SDS011;27912;51.828;5.688;2024-02-21T06:45:12;17.33;;;7.18;;
42244;SDS011;27912;51.828;5.688;2024-02-21T06:47:38;20.27;;;7.10;;
42244;SDS011;27912;51.828;5.688;2024-02-21T06:50:03;23.95;;;8.25;;
42244;SDS011;27912;51.828;5.688;2024-02-21T06:52:29;18.27;;;7.05;;
42244;SDS011;27912;51.828;5.688;2024-02-21T06:54:56;16.02;;;6.85;;
42244;SDS011;27912;51.828;5.688;2024-02-21T06:57:21;19.80;;;7.40;;
42244;SDS011;27912;51.828;5.688;2024-02-21T06:59:47;19.33;;;7.07;;
42244;SDS011;27912;51.828;5.688;2024-02-21T07:02:13;16.30;;;7.28;;
42244;SDS011;27912;51.828;5.688;2024-02-21T07:04:38;15.50;;;6.32;;
42244;SDS011;27912;51.828;5.688;2024-02-21T07:07:04;18.25;;;7.50;;
42244;SDS011;27912;51.828;5.688;2024-02-21T07:09:29;18.88;;;6.68;;
42244;SDS011;27912;51.828;5.688;2024-02-21T07:11:57;15.52;;;6.85;;
42244;SDS011;27912;51.828;5.688;2024-02-21T07:14:23;13.77;;;6.15;;
42244;SDS011;27912;51.828;5.688;2024-02-21T07:16:48;15.65;;;6.65;;
42244;SDS011;27912;51.828;5.688;2024-02-21T07:19:14;21.70;;;7.55;;
42244;SDS011;27912;51.828;5.688;2024-02-21T07:21:39;16.33;;;6.75;;
42244;SDS011;27912;51.828;5.688;2024-02-21T07:24:07;14.95;;;7.07;;
42244;SDS011;27912;51.828;5.688;2024-02-21T07:26:33;12.27;;;6.43;;
42244;SDS011;27912;51.828;5.688;2024-02-21T07:28:58;14.35;;;6.43;;
42244;SDS011;27912;51.828;5.688;2024-02-21T07:31:24;14.05;;;6.10;;
42244;SDS011;27912;51.828;5.688;2024-02-21T07:33:50;15.35;;;6.40;;
42244;SDS011;27912;51.828;5.688;2024-02-21T07:36:15;16.05;;;6.38;;
42244;SDS011;27912;51.828;5.688;2024-02-21T07:38:49;17.05;;;7.53;;
42244;SDS011;27912;51.828;5.688;2024-02-21T07:41:15;18.73;;;7.13;;
42244;SDS011;27912;51.828;5.688;2024-02-21T07:43:40;17.90;;;6.80;;
42244;SDS011;27912;51.828;5.688;2024-02-21T07:46:06;17.80;;;7.15;;
42244;SDS011;27912;51.828;5.688;2024-02-21T07:48:32;17.83;;;7.22;;
42244;SDS011;27912;51.828;5.688;2024-02-21T07:50:57;16.20;;;7.25;;
42244;SDS011;27912;51.828;5.688;2024-02-21T07:53:23;15.25;;;6.40;;
42244;SDS011;27912;51.828;5.688;2024-02-21T07:55:48;18.63;;;7.68;;
42244;SDS011;27912;51.828;5.688;2024-02-21T07:58:14;18.70;;;7.25;;
42244;SDS011;27912;51.828;5.688;2024-02-21T08:00:39;16.02;;;7.57;;
42244;SDS011;27912;51.828;5.688;2024-02-21T08:03:05;17.15;;;7.80;;
42244;SDS011;27912;51.828;5.688;2024-02-21T08:05:30;15.82;;;7.00;;
42244;SDS011;27912;51.828;5.688;2024-02-21T08:07:59;16.23;;;7.00;;
42244;SDS011;27912;51.828;5.688;2024-02-21T08:10:25;23.67;;;8.10;;
42244;SDS011;27912;51.828;5.688;2024-02-21T08:12:50;16.45;;;7.95;;
42244;SDS011;27912;51.828;5.688;2024-02-21T08:15:16;16.05;;;7.10;;
42244;SDS011;27912;51.828;5.688;2024-02-21T08:17:42;14.75;;;8.23;;
42244;SDS011;27912;51.828;5.688;2024-02-21T08:20:08;17.05;;;6.97;;
42244;SDS011;27912;51.828;5.688;2024-02-21T08:22:36;16.77;;;7.43;;
42244;SDS011;27912;51.828;5.688;2024-02-21T08:25:02;17.08;;;7.90;;
42244;SDS011;27912;51.828;5.688;2024-02-21T08:27:30;13.30;;;7.95;;
42244;SDS011;27912;51.828;5.688;2024-02-21T08:29:56;20.63;;;8.07;;
42244;SDS011;27912;51.828;5.688;2024-02-21T08:32:21;18.95;;;7.65;;
42244;SDS011;27912;51.828;5.688;2024-02-21T08:34:47;16.48;;;8.27;;
42244;SDS011;27912;51.828;5.688;2024-02-21T08:37:12;19.80;;;8.45;;
42244;SDS011;27912;51.828;5.688;2024-02-21T08:39:38;15.30;;;8.48;;
42244;SDS011;27912;51.828;5.688;2024-02-21T08:42:04;17.52;;;8.13;;
42244;SDS011;27912;51.828;5.688;2024-02-21T08:44:30;15.20;;;7.82;;
42244;SDS011;27912;51.828;5.688;2024-02-21T08:46:55;16.17;;;7.47;;
42244;SDS011;27912;51.828;5.688;2024-02-21T08:49:21;12.70;;;7.78;;
42244;SDS011;27912;51.828;5.688;2024-02-21T08:51:47;25.13;;;9.00;;
42244;SDS011;27912;51.828;5.688;2024-02-21T08:54:12;14.70;;;8.30;;
42244;SDS011;27912;51.828;5.688;2024-02-21T08:56:38;15.15;;;7.10;;
42244;SDS011;27912;51.828;5.688;2024-02-21T08:59:04;15.90;;;8.25;;
42244;SDS011;27912;51.828;5.688;2024-02-21T09:01:29;15.60;;;7.45;;
42244;SDS011;27912;51.828;5.688;2024-02-21T09:03:55;16.58;;;7.60;;
42244;SDS011;27912;51.828;5.688;2024-02-21T09:06:21;14.52;;;7.60;;
42244;SDS011;27912;51.828;5.688;2024-02-21T09:08:47;15.60;;;7.53;;
42244;SDS011;27912;51.828;5.688;2024-02-21T09:11:13;13.75;;;7.25;;
42244;SDS011;27912;51.828;5.688;2024-02-21T09:13:38;14.68;;;7.47;;
42244;SDS011;27912;51.828;5.688;2024-02-21T09:16:04;11.60;;;7.20;;
42244;SDS011;27912;51.828;5.688;2024-02-21T09:18:31;15.68;;;6.65;;
42244;SDS011;27912;51.828;5.688;2024-02-21T09:20:56;13.15;;;6.38;;
42244;SDS011;27912;51.828;5.688;2024-02-21T09:23:25;13.52;;;6.43;;
42244;SDS011;27912;51.828;5.688;2024-02-21T09:25:51;9.57;;;5.82;;
42244;SDS011;27912;51.828;5.688;2024-02-21T09:28:16;13.95;;;6.32;;
42244;SDS011;27912;51.828;5.688;2024-02-21T09:30:42;10.55;;;5.15;;
42244;SDS011;27912;51.828;5.688;2024-02-21T09:33:08;9.70;;;5.78;;
42244;SDS011;27912;51.828;5.688;2024-02-21T09:35:33;10.05;;;4.85;;
42244;SDS011;27912;51.828;5.688;2024-02-21T09:37:59;8.65;;;4.85;;
42244;SDS011;27912;51.828;5.688;2024-02-21T09:40:24;8.75;;;5.03;;
42244;SDS011;27912;51.828;5.688;2024-02-21T09:42:52;9.52;;;5.13;;
42244;SDS011;27912;51.828;5.688;2024-02-21T09:45:33;8.00;;;4.82;;
42244;SDS011;27912;51.828;5.688;2024-02-21T09:50:49;11.00;;;4.68;;
42244;SDS011;27912;51.828;5.688;2024-02-21T09:53:16;9.05;;;4.43;;
42244;SDS011;27912;51.828;5.688;2024-02-21T09:55:44;9.05;;;5.10;;
42244;SDS011;27912;51.828;5.688;2024-02-21T09:58:11;9.48;;;5.30;;
42244;SDS011;27912;51.828;5.688;2024-02-21T10:00:38;9.30;;;5.53;;
42244;SDS011;27912;51.828;5.688;2024-02-21T10:03:03;8.38;;;5.60;;
42244;SDS011;27912;51.828;5.688;2024-02-21T10:05:35;5.95;;;4.10;;
42244;SDS011;27912;51.828;5.688;2024-02-21T10:08:02;9.55;;;5.05;;
42244;SDS011;27912;51.828;5.688;2024-02-21T10:10:28;12.43;;;5.32;;
42244;SDS011;27912;51.828;5.688;2024-02-21T10:12:55;7.20;;;4.28;;
42244;SDS011;27912;51.828;5.688;2024-02-21T10:15:22;6.95;;;4.75;;
42244;SDS011;27912;51.828;5.688;2024-02-21T10:17:49;8.13;;;5.45;;
42244;SDS011;27912;51.828;5.688;2024-02-21T10:20:22;7.63;;;4.82;;
42244;SDS011;27912;51.828;5.688;2024-02-21T10:22:48;6.63;;;4.45;;
42244;SDS011;27912;51.828;5.688;2024-02-21T10:25:14;8.77;;;5.03;;
42244;SDS011;27912;51.828;5.688;2024-02-21T10:27:40;7.90;;;4.88;;
42244;SDS011;27912;51.828;5.688;2024-02-21T10:30:13;8.00;;;5.25;;
42244;SDS011;27912;51.828;5.688;2024-02-21T10:32:54;9.30;;;5.72;;
42244;SDS011;27912;51.828;5.688;2024-02-21T10:35:31;8.38;;;5.53;;
42244;SDS011;27912;51.828;5.688;2024-02-21T10:37:58;7.82;;;5.72;;
42244;SDS011;27912;51.828;5.688;2024-02-21T10:40:25;11.15;;;5.70;;
42244;SDS011;27912;51.828;5.688;2024-02-21T10:42:57;8.80;;;5.53;;
42244;SDS011;27912;51.828;5.688;2024-02-21T10:45:30;11.38;;;6.07;;
42244;SDS011;27912;51.828;5.688;2024-02-21T10:48:01;11.75;;;6.95;;
42244;SDS011;27912;51.828;5.688;2024-02-21T10:50:36;11.77;;;6.78;;
42244;SDS011;27912;51.828;5.688;2024-02-21T10:59:03;11.15;;;6.18;;
42244;SDS011;27912;51.828;5.688;2024-02-21T11:01:30;11.48;;;6.28;;
42244;SDS011;27912;51.828;5.688;2024-02-21T11:04:07;14.80;;;6.72;;
42244;SDS011;27912;51.828;5.688;2024-02-21T11:06:35;11.20;;;6.63;;
42244;SDS011;27912;51.828;5.688;2024-02-21T11:09:04;10.88;;;5.88;;
42244;SDS011;27912;51.828;5.688;2024-02-21T11:11:37;11.43;;;5.15;;
42244;SDS011;27912;51.828;5.688;2024-02-21T11:14:26;14.23;;;5.72;;
42244;SDS011;27912;51.828;5.688;2024-02-21T11:16:51;9.35;;;5.30;;
42244;SDS011;27912;51.828;5.688;2024-02-21T11:19:20;12.32;;;6.10;;
42244;SDS011;27912;51.828;5.688;2024-02-21T11:21:47;12.48;;;5.60;;
42244;SDS011;27912;51.828;5.688;2024-02-21T11:24:13;10.48;;;4.80;;
42244;SDS011;27912;51.828;5.688;2024-02-21T11:26:39;10.80;;;5.53;;
42244;SDS011;27912;51.828;5.688;2024-02-21T11:29:08;11.20;;;5.40;;
42244;SDS011;27912;51.828;5.688;2024-02-21T11:31:42;11.00;;;4.97;;
42244;SDS011;27912;51.828;5.688;2024-02-21T11:34:10;11.73;;;4.50;;
42244;SDS011;27912;51.828;5.688;2024-02-21T11:36:49;10.32;;;4.50;;
42244;SDS011;27912;51.828;5.688;2024-02-21T11:39:20;11.00;;;4.40;;
42244;SDS011;27912;51.828;5.688;2024-02-21T11:46:59;9.20;;;3.95;;
42244;SDS011;27912;51.828;5.688;2024-02-21T11:49:25;8.23;;;3.92;;
42244;SDS011;27912;51.828;5.688;2024-02-21T11:51:58;11.63;;;3.88;;
42244;SDS011;27912;51.828;5.688;2024-02-21T11:54:25;9.63;;;4.35;;
42244;SDS011;27912;51.828;5.688;2024-02-21T11:56:51;9.95;;;3.45;;
42244;SDS011;27912;51.828;5.688;2024-02-21T11:59:17;8.13;;;3.63;;
42244;SDS011;27912;51.828;5.688;2024-02-21T12:01:42;9.48;;;3.40;;
42244;SDS011;27912;51.828;5.688;2024-02-21T12:04:08;10.60;;;3.55;;
42244;SDS011;27912;51.828;5.688;2024-02-21T12:06:34;7.40;;;3.15;;
42244;SDS011;27912;51.828;5.688;2024-02-21T12:08:59;9.05;;;4.15;;
42244;SDS011;27912;51.828;5.688;2024-02-21T12:11:25;9.98;;;3.67;;
42244;SDS011;27912;51.828;5.688;2024-02-21T12:16:28;10.20;;;3.30;;
42244;SDS011;27912;51.828;5.688;2024-02-21T12:19:03;8.38;;;3.53;;
42244;SDS011;27912;51.828;5.688;2024-02-21T12:21:30;6.63;;;3.33;;
42244;SDS011;27912;51.828;5.688;2024-02-21T12:23:57;7.50;;;3.25;;
42244;SDS011;27912;51.828;5.688;2024-02-21T12:26:23;8.73;;;3.50;;
42244;SDS011;27912;51.828;5.688;2024-02-21T12:28:49;8.93;;;2.75;;
42244;SDS011;27912;51.828;5.688;2024-02-21T12:31:15;8.25;;;3.55;;
42244;SDS011;27912;51.828;5.688;2024-02-21T12:33:41;6.15;;;2.38;;
42244;SDS011;27912;51.828;5.688;2024-02-21T12:36:08;7.88;;;3.10;;
42244;SDS011;27912;51.828;5.688;2024-02-21T12:38:34;7.32;;;2.75;;
42244;SDS011;27912;51.828;5.688;2024-02-21T12:41:00;11.02;;;3.00;;
42244;SDS011;27912;51.828;5.688;2024-02-21T12:43:26;6.03;;;2.35;;
42244;SDS011;27912;51.828;5.688;2024-02-21T12:45:52;10.15;;;3.45;;
42244;SDS011;27912;51.828;5.688;2024-02-21T12:48:17;7.90;;;3.03;;
42244;SDS011;27912;51.828;5.688;2024-02-21T12:50:50;5.75;;;2.78;;
42244;SDS011;27912;51.828;5.688;2024-02-21T12:53:19;7.80;;;2.40;;
42244;SDS011;27912;51.828;5.688;2024-02-21T12:55:46;5.82;;;2.75;;
42244;SDS011;27912;51.828;5.688;2024-02-21T12:58:15;5.90;;;2.42;;
42244;SDS011;27912;51.828;5.688;2024-02-21T13:00:41;8.82;;;2.70;;
42244;SDS011;27912;51.828;5.688;2024-02-21T13:03:07;9.95;;;2.80;;
42244;SDS011;27912;51.828;5.688;2024-02-21T13:05:34;9.15;;;2.58;;
42244;SDS011;27912;51.828;5.688;2024-02-21T13:08:04;7.82;;;2.42;;
42244;SDS011;27912;51.828;5.688;2024-02-21T13:10:30;8.68;;;2.30;;
42244;SDS011;27912;51.828;5.688;2024-02-21T13:12:58;5.55;;;1.95;;
42244;SDS011;27912;51.828;5.688;2024-02-21T13:15:23;10.35;;;2.08;;
42244;SDS011;27912;51.828;5.688;2024-02-21T13:17:49;8.07;;;2.58;;
42244;SDS011;27912;51.828;5.688;2024-02-21T13:20:15;10.10;;;2.58;;
42244;SDS011;27912;51.828;5.688;2024-02-21T13:22:40;6.20;;;2.53;;
42244;SDS011;27912;51.828;5.688;2024-02-21T13:25:06;4.43;;;1.38;;
42244;SDS011;27912;51.828;5.688;2024-02-21T13:27:35;10.90;;;2.40;;
42244;SDS011;27912;51.828;5.688;2024-02-21T13:30:01;6.38;;;2.17;;
42244;SDS011;27912;51.828;5.688;2024-02-21T13:32:30;8.18;;;1.95;;
42244;SDS011;27912;51.828;5.688;2024-02-21T13:34:56;7.72;;;2.55;;
42244;SDS011;27912;51.828;5.688;2024-02-21T13:37:24;8.45;;;2.00;;
42244;SDS011;27912;51.828;5.688;2024-02-21T13:39:51;6.50;;;2.13;;
42244;SDS011;27912;51.828;5.688;2024-02-21T13:42:17;10.18;;;2.75;;
42244;SDS011;27912;51.828;5.688;2024-02-21T13:44:44;4.15;;;1.75;;
42244;SDS011;27912;51.828;5.688;2024-02-21T13:47:10;9.02;;;2.53;;
42244;SDS011;27912;51.828;5.688;2024-02-21T13:49:38;6.15;;;1.73;;
42244;SDS011;27912;51.828;5.688;2024-02-21T13:52:04;14.50;;;2.10;;
42244;SDS011;27912;51.828;5.688;2024-02-21T13:54:30;6.30;;;1.80;;
42244;SDS011;27912;51.828;5.688;2024-02-21T13:56:56;7.88;;;2.53;;
42244;SDS011;27912;51.828;5.688;2024-02-21T13:59:21;9.68;;;2.47;;
42244;SDS011;27912;51.828;5.688;2024-02-21T14:01:47;5.88;;;2.08;;
42244;SDS011;27912;51.828;5.688;2024-02-21T14:04:13;7.63;;;2.35;;
42244;SDS011;27912;51.828;5.688;2024-02-21T14:06:38;9.48;;;1.80;;
42244;SDS011;27912;51.828;5.688;2024-02-21T14:09:08;5.90;;;1.75;;
42244;SDS011;27912;51.828;5.688;2024-02-21T14:11:34;5.65;;;1.42;;
42244;SDS011;27912;51.828;5.688;2024-02-21T14:14:00;5.50;;;1.88;;
42244;SDS011;27912;51.828;5.688;2024-02-21T14:16:26;7.38;;;2.08;;
42244;SDS011;27912;51.828;5.688;2024-02-21T14:18:52;3.65;;;1.33;;
42244;SDS011;27912;51.828;5.688;2024-02-21T14:21:19;6.97;;;1.63;;
42244;SDS011;27912;51.828;5.688;2024-02-21T14:23:44;5.88;;;1.10;;
42244;SDS011;27912;51.828;5.688;2024-02-21T14:26:10;4.38;;;1.15;;
42244;SDS011;27912;51.828;5.688;2024-02-21T14:28:37;6.75;;;1.10;;
42244;SDS011;27912;51.828;5.688;2024-02-21T14:31:02;4.13;;;1.10;;
42244;SDS011;27912;51.828;5.688;2024-02-21T14:33:30;5.90;;;1.13;;
42244;SDS011;27912;51.828;5.688;2024-02-21T14:35:56;8.55;;;1.95;;
42244;SDS011;27912;51.828;5.688;2024-02-21T14:38:22;5.72;;;0.98;;
42244;SDS011;27912;51.828;5.688;2024-02-21T14:40:47;3.58;;;1.20;;
42244;SDS011;27912;51.828;5.688;2024-02-21T14:43:13;4.80;;;1.13;;
42244;SDS011;27912;51.828;5.688;2024-02-21T14:45:39;4.40;;;1.25;;
42244;SDS011;27912;51.828;5.688;2024-02-21T14:48:05;9.23;;;1.92;;
42244;SDS011;27912;51.828;5.688;2024-02-21T14:50:31;10.30;;;1.25;;